Time;durP1;ratioP1;P1;durP2;ratioP2;P2;SDS_P1;SDS_P2;PMS_P1;PMS_P2;Temp;Humidity;BMP_temperature;BMP_pressure;BME280_temperature;BME280_humidity;BME280_pressure;Samples;Min_cycle;Max_cycle;Signal;HPM_P1;HPM_P2
2022/12/18 00:00:05;;;;;;;2.75;2.65;;;;;;;-7.79;85.89;97890.63;29373;915;63004;-60
2022/12/18 00:00:41;;;;;;;0.80;0.80;;;;;;;-7.77;85.81;97896.56;29373;544;63008;-60
2022/12/18 00:01:24;;;;;;;0.80;0.80;;;;;;;-7.75;85.55;97896.41;29373;208;63003;-60
2022/12/18 00:02:01;;;;;;;0.80;0.80;;;;;;;-7.74;85.30;97899.88;29373;597;63009;-59
2022/12/18 00:02:32;;;;;;;3.40;3.20;;;;;;;-7.75;85.33;97899.03;29371;257;64009;-60
2022/12/18 00:03:03;;;;;;;1.12;1.12;;;;;;;-7.75;85.28;97898.22;29373;657;63009;-60
2022/12/18 00:03:35;;;;;;;0.90;0.90;;;;;;;-7.74;85.35;97905.16;29373;916;63005;-59
2022/12/18 00:04:15;;;;;;;0.80;0.80;;;;;;;-7.77;85.21;97901.00;29373;445;63009;-59
2022/12/18 00:04:46;;;;;;;0.80;0.80;;;;;;;-7.78;85.47;97904.63;29373;371;63008;-60
2022/12/18 00:05:17;;;;;;;0.80;0.80;;;;;;;-7.86;85.28;97896.66;29373;200;63009;-60
2022/12/18 00:05:50;;;;;;;0.80;0.80;;;;;;;-7.85;85.21;97904.41;29373;202;63004;-59
2022/12/18 00:06:24;;;;;;;0.80;0.80;;;;;;;-7.88;85.38;97903.88;29373;403;63016;-60
2022/12/18 00:06:55;;;;;;;0.80;0.80;;;;;;;-7.89;85.51;97907.47;29373;235;63004;-60
2022/12/18 00:07:35;;;;;;;0.80;0.80;;;;;;;-7.89;85.48;97910.13;29371;331;64013;-60
2022/12/18 00:08:09;;;;;;;0.90;0.90;;;;;;;-7.91;85.62;97909.44;29395;542;63004;-59
2022/12/18 00:08:42;;;;;;;0.80;0.80;;;;;;;-7.90;85.56;97905.81;29395;221;63008;-60
2022/12/18 00:09:13;;;;;;;2.00;2.00;;;;;;;-7.94;85.58;97900.03;29371;209;64009;-59
2022/12/18 00:09:47;;;;;;;0.80;0.80;;;;;;;-7.86;85.51;97909.81;29373;208;63009;-59
2022/12/18 00:10:18;;;;;;;0.80;0.80;;;;;;;-7.87;85.36;97906.34;29371;263;64009;-60
2022/12/18 00:10:50;;;;;;;0.80;0.80;;;;;;;-7.88;85.34;97903.88;29373;202;63009;-59
2022/12/18 00:11:23;;;;;;;0.80;0.80;;;;;;;-7.89;85.49;97897.78;29373;470;63005;-60
2022/12/18 00:11:54;;;;;;;0.80;0.80;;;;;;;-7.87;85.41;97901.09;29373;671;63009;-59
2022/12/18 00:12:26;;;;;;;0.80;0.80;;;;;;;-7.85;85.53;97901.75;29373;837;63004;-61
2022/12/18 00:12:58;;;;;;;0.70;0.70;;;;;;;-7.84;85.41;97899.94;29373;205;63009;-61
2022/12/18 00:13:30;;;;;;;0.82;0.82;;;;;;;-7.83;85.56;97901.59;29373;196;63004;-60
2022/12/18 00:14:01;;;;;;;0.73;0.73;;;;;;;-7.84;85.30;97905.22;29373;209;63009;-59
2022/12/18 00:14:32;;;;;;;1.15;1.15;;;;;;;-7.86;85.26;97904.56;29373;284;63004;-59
2022/12/18 00:15:05;;;;;;;0.98;0.98;;;;;;;-7.86;85.15;97904.56;29373;215;63008;-59
2022/12/18 00:15:38;;;;;;;0.80;0.80;;;;;;;-7.87;85.36;97911.63;29371;198;64009;-59
2022/12/18 00:16:12;;;;;;;0.82;0.82;;;;;;;-7.87;85.30;97900.25;29373;766;63027;-60
2022/12/18 00:16:46;;;;;;;0.80;0.80;;;;;;;-7.89;85.34;97896.94;29373;721;63010;-59
2022/12/18 00:17:17;;;;;;;0.80;0.80;;;;;;;-7.88;85.26;97909.97;29373;593;63009;-59
2022/12/18 00:17:48;;;;;;;0.75;0.75;;;;;;;-7.88;85.38;97914.41;29373;199;63005;-60
2022/12/18 00:18:20;;;;;;;0.80;0.80;;;;;;;-7.87;85.38;97910.78;29371;561;64013;-61
2022/12/18 00:18:54;;;;;;;0.80;0.80;;;;;;;-7.90;85.31;97904.03;29373;211;63005;-60
2022/12/18 00:19:25;;;;;;;0.80;0.80;;;;;;;-7.93;85.23;97909.59;29371;387;64013;-59
2022/12/18 00:19:57;;;;;;;0.80;0.80;;;;;;;-7.94;85.42;97907.09;29373;196;63004;-59
2022/12/18 00:20:28;;;;;;;0.80;0.80;;;;;;;-7.96;85.54;97903.78;29373;218;63009;-59
2022/12/18 00:21:05;;;;;;;0.80;0.80;;;;;;;-7.98;85.58;97913.69;29373;607;63004;-60
2022/12/18 00:21:37;;;;;;;0.80;0.80;;;;;;;-7.97;85.58;97915.34;29373;686;63015;-59
2022/12/18 00:22:08;;;;;;;0.80;0.80;;;;;;;-7.94;85.68;97909.75;29373;202;63004;-60
2022/12/18 00:22:39;;;;;;;0.80;0.80;;;;;;;-7.96;85.28;97907.25;29373;551;63008;-60
2022/12/18 00:23:10;;;;;;;0.80;0.80;;;;;;;-7.95;85.19;97913.34;29373;216;63005;-60
2022/12/18 00:23:44;;;;;;;0.90;0.90;;;;;;;-7.97;85.23;97904.81;29373;225;63009;-59
2022/12/18 00:24:15;;;;;;;0.80;0.80;;;;;;;-8.00;85.11;97905.09;29371;466;64009;-60
2022/12/18 00:24:46;;;;;;;3.70;3.40;;;;;;;-8.03;85.42;97906.25;29371;960;64013;-60
2022/12/18 00:25:23;;;;;;;0.90;0.90;;;;;;;-8.07;85.48;97907.50;29373;291;63005;-59
2022/12/18 00:25:54;;;;;;;2.85;2.75;;;;;;;-8.07;85.47;97904.06;29373;927;63009;-61
2022/12/18 00:26:30;;;;;;;0.70;0.70;;;;;;;-8.08;85.79;97903.22;29373;197;63007;-60
2022/12/18 00:27:01;;;;;;;1.80;1.70;;;;;;;-8.09;85.69;97903.38;29371;205;64013;-60
2022/12/18 00:27:32;;;;;;;0.80;0.80;;;;;;;-8.07;85.74;97906.69;29373;410;63004;-60
2022/12/18 00:28:04;;;;;;;5.50;2.35;;;;;;;-8.01;85.57;97903.44;29373;720;63009;-60
2022/12/18 00:28:35;;;;;;;0.70;0.70;;;;;;;-7.96;85.25;97901.16;29373;242;63004;-60
2022/12/18 00:29:13;;;;;;;0.80;0.80;;;;;;;-7.94;85.00;97899.22;29373;196;63009;-59
2022/12/18 00:29:44;;;;;;;0.93;0.93;;;;;;;-7.97;84.95;97899.53;29373;221;63004;-59
2022/12/18 00:30:16;;;;;;;0.80;0.80;;;;;;;-8.00;85.24;97899.84;29373;221;63008;-60
2022/12/18 00:30:51;;;;;;;1.00;1.00;;;;;;;-8.00;85.09;97899.84;29371;202;64009;-59
2022/12/18 00:31:24;;;;;;;0.80;0.80;;;;;;;-8.02;85.09;97902.63;29371;213;64014;-61
2022/12/18 00:31:55;;;;;;;0.80;0.80;;;;;;;-8.02;85.07;97901.78;29371;770;64009;-59
2022/12/18 00:32:26;;;;;;;0.80;0.80;;;;;;;-8.01;85.11;97892.91;29373;895;63017;-59
2022/12/18 00:32:58;;;;;;;0.90;0.90;;;;;;;-8.00;85.29;97900.66;29373;775;63005;-61
2022/12/18 00:33:29;;;;;;;0.80;0.80;;;;;;;-7.97;85.10;97902.19;29373;467;63021;-60
2022/12/18 00:34:00;;;;;;;0.80;0.80;;;;;;;-7.97;84.79;97894.28;29373;213;63005;-61
2022/12/18 00:34:32;;;;;;;0.80;0.80;;;;;;;-8.00;84.79;97894.56;29373;208;63023;-60
2022/12/18 00:35:04;;;;;;;0.80;0.80;;;;;;;-8.05;84.59;97902.94;29373;532;63004;-60
2022/12/18 00:35:37;;;;;;;1.15;1.08;;;;;;;-8.08;84.58;97897.97;29373;726;63008;-61
2022/12/18 00:36:14;;;;;;;0.80;0.80;;;;;;;-8.08;84.89;97897.97;29373;754;63004;-60
2022/12/18 00:36:48;;;;;;;0.80;0.80;;;;;;;-8.06;84.87;97900.44;29371;202;64013;-59
2022/12/18 00:37:24;;;;;;;1.00;1.00;;;;;;;-8.04;84.90;97898.50;29373;461;63016;-61
2022/12/18 00:37:58;;;;;;;0.80;0.80;;;;;;;-8.06;84.40;97910.97;29373;454;63008;-59
2022/12/18 00:38:29;;;;;;;0.80;0.80;;;;;;;-8.09;84.38;97911.28;29373;462;63005;-61
2022/12/18 00:39:03;;;;;;;0.80;0.80;;;;;;;-8.12;84.69;97907.97;29373;714;63009;-59
2022/12/18 00:39:35;;;;;;;0.85;0.85;;;;;;;-8.16;84.61;97911.88;29373;350;63007;-60
2022/12/18 00:40:08;;;;;;;0.80;0.80;;;;;;;-8.17;84.90;97910.22;29373;426;63009;-61
2022/12/18 00:40:39;;;;;;;0.90;0.90;;;;;;;-8.15;84.92;97912.69;29373;753;63005;-59
2022/12/18 00:41:12;;;;;;;0.80;0.80;;;;;;;-8.17;84.77;97915.47;29373;198;63009;-61
2022/12/18 00:43:23;;;;;;;5.62;5.37;;;;;;;-8.08;84.42;97918.19;29373;580;63004;-61
2022/12/18 00:43:54;;;;;;;0.85;0.85;;;;;;;-8.10;84.20;97913.09;29373;213;63009;-61
2022/12/18 00:44:26;;;;;;;5.97;5.75;;;;;;;-8.06;84.34;97916.25;29373;418;63004;-59
2022/12/18 00:44:57;;;;;;;0.80;0.80;;;;;;;-8.07;84.17;97909.31;29373;656;63008;-59
2022/12/18 00:45:30;;;;;;;0.90;0.90;;;;;;;-8.09;84.39;97911.28;29373;212;63004;-60
2022/12/18 00:46:02;;;;;;;4.30;4.10;;;;;;;-8.15;84.07;97912.69;29371;205;64014;-59
2022/12/18 00:46:34;;;;;;;2.10;1.50;;;;;;;-8.18;84.39;97913.81;29373;197;63005;-60
2022/12/18 00:47:05;;;;;;;0.90;0.90;;;;;;;-8.23;84.41;97909.97;29373;197;63009;-59
2022/12/18 00:47:36;;;;;;;0.80;0.80;;;;;;;-8.20;84.49;97915.78;29373;221;63005;-60
2022/12/18 00:48:07;;;;;;;0.82;0.82;;;;;;;-8.23;84.32;97913.44;29373;338;63009;-60
2022/12/18 00:48:39;;;;;;;2.37;2.28;;;;;;;-8.25;84.43;97918.03;29373;632;63005;-60
2022/12/18 00:49:10;;;;;;;0.80;0.80;;;;;;;-8.28;84.52;97913.06;29373;202;63009;-60
2022/12/18 00:49:42;;;;;;;1.17;1.17;;;;;;;-8.32;84.71;97926.72;29373;774;63005;-60
2022/12/18 00:50:14;;;;;;;0.80;0.80;;;;;;;-8.35;84.82;97917.34;29371;350;64013;-60
2022/12/18 00:50:47;;;;;;;0.80;0.80;;;;;;;-8.33;84.83;97925.06;29373;225;63004;-59
2022/12/18 00:51:18;;;;;;;0.90;0.90;;;;;;;-8.36;84.98;97923.56;29373;578;63009;-61
2022/12/18 00:51:50;;;;;;;1.00;1.00;;;;;;;-8.35;85.03;97922.59;29373;329;63004;-59
2022/12/18 00:52:21;;;;;;;0.80;0.80;;;;;;;-8.37;84.84;97919.28;29373;202;63009;-60
2022/12/18 00:52:52;;;;;;;1.55;1.45;;;;;;;-8.40;84.85;97916.94;29373;202;63007;-60
2022/12/18 00:53:25;;;;;;;1.10;1.10;;;;;;;-8.41;84.96;97917.91;29373;220;63009;-60
2022/12/18 00:53:56;;;;;;;0.80;0.80;;;;;;;-8.41;84.88;97917.09;29373;379;63005;-61
2022/12/18 00:54:28;;;;;;;0.80;0.80;;;;;;;-8.42;85.11;97921.53;29373;671;63009;-61
2022/12/18 00:54:59;;;;;;;0.80;0.80;;;;;;;-8.43;85.08;97922.50;29371;422;64009;-60
2022/12/18 00:55:31;;;;;;;0.80;0.80;;;;;;;-8.42;84.99;97921.53;29373;206;63009;-60
2022/12/18 00:56:03;;;;;;;0.80;0.80;;;;;;;-8.42;85.01;97921.53;29374;218;63005;-59
2022/12/18 00:56:37;;;;;;;0.80;0.80;;;;;;;-8.42;85.09;97924.16;29374;238;63009;-60
2022/12/18 00:57:08;;;;;;;0.80;0.80;;;;;;;-8.40;85.01;97930.09;29372;419;64009;-60
2022/12/18 00:57:39;;;;;;;0.80;0.80;;;;;;;-8.40;84.92;97918.75;29374;258;63009;-61
2022/12/18 00:58:12;;;;;;;0.90;0.90;;;;;;;-8.40;84.95;97914.31;29374;589;63004;-60
2022/12/18 00:58:43;;;;;;;0.80;0.80;;;;;;;-8.39;85.06;97915.97;29374;208;63009;-59
2022/12/18 00:59:15;;;;;;;1.10;1.10;;;;;;;-8.36;84.91;97918.31;29374;371;63004;-61
2022/12/18 00:59:46;;;;;;;0.80;0.80;;;;;;;-8.38;84.68;97920.25;29374;229;63012;-61
2022/12/18 01:00:18;;;;;;;0.80;0.80;;;;;;;-8.42;84.70;97912.81;29373;690;63004;-60
2022/12/18 01:00:50;;;;;;;0.80;0.80;;;;;;;-8.46;84.72;97922.78;29372;571;64014;-60
2022/12/18 01:01:21;;;;;;;0.80;0.80;;;;;;;-8.49;84.81;97920.47;29374;476;63005;-60
2022/12/18 01:01:52;;;;;;;0.80;0.80;;;;;;;-8.55;84.89;97921.03;29374;209;63009;-59
2022/12/18 01:02:23;;;;;;;0.85;0.85;;;;;;;-8.54;84.86;97917.44;29372;311;64009;-60
2022/12/18 01:02:55;;;;;;;0.80;0.80;;;;;;;-8.54;84.83;97917.44;29374;212;63009;-61
2022/12/18 01:03:27;;;;;;;0.80;0.80;;;;;;;-8.56;84.72;97924.66;29374;250;63005;-60
2022/12/18 01:04:02;;;;;;;0.80;0.80;;;;;;;-8.55;84.89;97921.03;29374;532;63009;-61
2022/12/18 01:04:34;;;;;;;0.80;0.80;;;;;;;-8.53;84.98;97919.09;29372;442;64009;-58
2022/12/18 01:05:06;;;;;;;0.80;0.80;;;;;;;-8.52;84.95;97918.13;29374;515;63009;-60
2022/12/18 01:05:40;;;;;;;4.87;2.55;;;;;;;-8.50;85.32;97916.16;29372;331;64009;-60
2022/12/18 01:06:13;;;;;;;0.80;0.80;;;;;;;-8.48;85.07;97917.69;29374;202;63009;-61
2022/12/18 01:06:44;;;;;;;0.80;0.80;;;;;;;-8.43;84.87;97914.59;29374;416;63004;-59
2022/12/18 01:07:15;;;;;;;0.75;0.75;;;;;;;-8.43;84.45;97919.87;29374;573;63009;-61
2022/12/18 01:07:48;;;;;;;0.80;0.80;;;;;;;-8.41;84.30;97917.91;29374;825;63004;-60
2022/12/18 01:08:19;;;;;;;7.10;6.72;;;;;;;-8.37;84.05;97913.19;29374;582;63008;-59
2022/12/18 01:08:53;;;;;;;0.80;0.80;;;;;;;-8.37;84.02;97913.19;29374;451;63005;-59
2022/12/18 01:09:25;;;;;;;2.22;2.12;;;;;;;-8.42;83.90;97913.63;29374;239;63009;-59
2022/12/18 01:09:56;;;;;;;0.80;0.80;;;;;;;-8.43;84.25;97911.97;29372;206;64009;-59
2022/12/18 01:10:27;;;;;;;0.80;0.80;;;;;;;-8.42;84.39;97913.63;29374;213;63009;-58
2022/12/18 01:10:59;;;;;;;0.90;0.90;;;;;;;-8.42;84.50;97916.25;29372;209;64009;-58
2022/12/18 01:11:30;;;;;;;0.80;0.80;;;;;;;-8.42;84.35;97918.06;29374;207;63009;-59
2022/12/18 01:12:01;;;;;;;1.25;1.25;;;;;;;-8.43;84.41;97913.78;29374;624;63004;-60
2022/12/18 01:12:33;;;;;;;1.23;1.23;;;;;;;-8.41;84.34;97917.09;29374;669;63009;-59
2022/12/18 01:13:04;;;;;;;1.52;1.42;;;;;;;-8.38;84.28;97917.63;29374;210;63017;-59
2022/12/18 01:13:36;;;;;;;0.95;0.95;;;;;;;-8.36;83.86;97918.31;29374;228;63009;-59
2022/12/18 01:14:08;;;;;;;4.60;4.40;;;;;;;-8.35;83.96;97919.97;29374;212;63004;-58
2022/12/18 01:14:39;;;;;;;1.30;1.30;;;;;;;-8.38;83.84;97912.34;29374;227;63018;-59
2022/12/18 01:15:13;;;;;;;1.15;1.15;;;;;;;-8.33;84.01;97910.13;29374;221;63004;-60
2022/12/18 01:15:49;;;;;;;0.82;0.82;;;;;;;-8.33;83.79;97910.13;29372;374;64013;-58
2022/12/18 01:16:22;;;;;;;0.90;0.90;;;;;;;-8.34;83.74;97908.47;29374;203;63005;-60
2022/12/18 01:16:53;;;;;;;4.00;3.90;;;;;;;-8.38;83.87;97907.09;29373;201;64009;-61
2022/12/18 01:17:25;;;;;;;0.80;0.80;;;;;;;-8.41;84.02;97917.91;29374;345;63005;-60
2022/12/18 01:17:59;;;;;;;4.12;3.92;;;;;;;-8.42;84.09;97910.16;29374;219;63024;-60
2022/12/18 01:18:30;;;;;;;1.08;1.08;;;;;;;-8.43;84.29;97917.25;29374;213;63005;-60
2022/12/18 01:19:02;;;;;;;1.00;1.00;;;;;;;-8.43;84.17;97919.03;29374;816;63013;-58
2022/12/18 01:19:33;;;;;;;0.90;0.90;;;;;;;-8.42;84.05;97911.00;29374;575;63009;-58
2022/12/18 01:20:06;;;;;;;2.03;1.92;;;;;;;-8.40;84.15;97903.78;29374;257;63009;-60
2022/12/18 01:20:38;;;;;;;1.73;1.70;;;;;;;-8.38;84.02;97915.00;29372;209;64009;-60
2022/12/18 01:21:15;;;;;;;0.80;0.80;;;;;;;-8.38;84.02;97912.34;29374;589;63009;-60
2022/12/18 01:21:47;;;;;;;0.90;0.90;;;;;;;-8.39;84.22;97913.34;29374;199;63008;-58
2022/12/18 01:22:18;;;;;;;0.80;0.80;;;;;;;-8.40;84.32;97903.78;29374;205;63008;-60
2022/12/18 01:22:49;;;;;;;1.33;1.33;;;;;;;-8.40;84.42;97916.12;29374;385;63005;-59
2022/12/18 01:23:24;;;;;;;0.90;0.90;;;;;;;-8.41;84.57;97917.09;29374;649;63009;-59
2022/12/18 01:23:56;;;;;;;1.17;1.17;;;;;;;-8.43;84.62;97914.59;29374;202;63005;-60
2022/12/18 01:24:28;;;;;;;1.00;1.00;;;;;;;-8.42;84.29;97916.25;29372;593;64013;-60
2022/12/18 01:25:00;;;;;;;2.40;2.25;;;;;;;-8.41;84.37;97919.72;29374;453;63005;-60
2022/12/18 01:25:32;;;;;;;0.80;0.80;;;;;;;-8.42;84.44;97921.53;29374;196;63009;-58
2022/12/18 01:26:09;;;;;;;0.80;0.80;;;;;;;-8.46;84.50;97921.00;29374;804;63005;-60
2022/12/18 01:26:42;;;;;;;1.23;1.23;;;;;;;-8.47;84.46;97924.59;29374;232;63009;-60
2022/12/18 01:27:13;;;;;;;1.33;1.30;;;;;;;-8.47;84.59;97923.78;29374;206;63004;-59
2022/12/18 01:27:48;;;;;;;0.80;0.80;;;;;;;-8.50;84.59;97918.81;29374;451;63009;-58
2022/12/18 01:28:19;;;;;;;2.62;2.45;;;;;;;-8.50;84.81;97924.91;29374;203;63004;-60
2022/12/18 01:28:50;;;;;;;2.22;2.03;;;;;;;-8.50;85.06;97927.53;29374;196;63009;-60
2022/12/18 01:29:22;;;;;;;0.90;0.90;;;;;;;-8.47;85.16;97924.59;29374;561;63010;-59
2022/12/18 01:29:53;;;;;;;0.80;0.80;;;;;;;-8.45;84.94;97927.09;29372;417;64008;-59
2022/12/18 01:30:25;;;;;;;0.80;0.80;;;;;;;-8.45;85.06;97927.09;29375;213;63005;-59
2022/12/18 01:30:56;;;;;;;0.80;0.80;;;;;;;-8.42;84.92;97924.16;29375;877;63009;-59
2022/12/18 01:31:30;;;;;;;1.27;1.27;;;;;;;-8.43;85.01;97922.50;29375;643;63005;-60
2022/12/18 01:32:05;;;;;;;0.80;0.80;;;;;;;-8.42;84.92;97925.97;29375;197;63009;-58
2022/12/18 01:32:36;;;;;;;2.60;2.45;;;;;;;-8.43;85.13;97929.56;29375;913;63005;-58
2022/12/18 01:33:07;;;;;;;0.80;0.80;;;;;;;-8.42;84.95;97926.78;29373;214;64013;-59
2022/12/18 01:33:39;;;;;;;0.80;0.80;;;;;;;-8.42;84.95;97921.53;29375;573;63005;-59
2022/12/18 01:34:10;;;;;;;1.33;1.33;;;;;;;-8.40;85.04;97919.56;29376;199;63009;-57
2022/12/18 01:34:41;;;;;;;0.80;0.80;;;;;;;-8.37;84.91;97918.44;29375;729;63004;-59
2022/12/18 01:35:13;;;;;;;0.90;0.90;;;;;;;-8.33;84.72;97915.38;29375;203;63009;-59
2022/12/18 01:35:44;;;;;;;0.80;0.80;;;;;;;-8.28;84.71;97915.69;29375;247;63004;-59
2022/12/18 01:36:23;;;;;;;0.80;0.80;;;;;;;-8.28;84.47;97913.06;29375;272;63009;-59
2022/12/18 01:36:55;;;;;;;0.80;0.80;;;;;;;-8.24;84.29;97914.41;29375;401;63004;-59
2022/12/18 01:37:27;;;;;;;0.95;0.95;;;;;;;-8.23;84.18;97910.81;29373;692;64007;-58
2022/12/18 01:37:58;;;;;;;0.85;0.85;;;;;;;-8.24;84.10;97914.41;29375;580;63005;-59
2022/12/18 01:38:30;;;;;;;0.80;0.80;;;;;;;-8.21;84.08;97914.13;29375;664;63009;-60
2022/12/18 01:39:06;;;;;;;1.67;1.58;;;;;;;-8.21;83.88;97914.13;29374;676;63012;-58
2022/12/18 01:39:38;;;;;;;0.90;0.90;;;;;;;-8.19;83.84;97913.97;29376;234;63009;-58
2022/12/18 01:40:11;;;;;;;1.40;1.30;;;;;;;-8.15;83.72;97921.44;29376;216;63005;-59
2022/12/18 01:40:42;;;;;;;4.35;4.05;;;;;;;-8.16;83.64;97913.69;29374;203;64013;-58
2022/12/18 01:41:19;;;;;;;0.90;0.90;;;;;;;-8.18;83.95;97920.91;29376;773;63008;-58
2022/12/18 01:42:04;;;;;;;1.23;1.23;;;;;;;-8.19;83.91;97914.81;29376;624;63009;-58
2022/12/18 01:42:36;;;;;;;0.90;0.90;;;;;;;-8.19;83.87;97922.69;29376;663;63004;-59
2022/12/18 01:43:09;;;;;;;0.80;0.80;;;;;;;-8.18;83.84;97923.53;29376;401;63009;-59
2022/12/18 01:44:26;;;;;;;2.25;1.60;;;;;;;-8.20;83.95;97923.69;29376;772;63004;-61
2022/12/18 01:45:27;;;;;;;0.90;0.90;;;;;;;-8.18;83.87;97929.63;29374;482;64013;-60
2022/12/18 01:45:59;;;;;;;3.45;2.00;;;;;;;-8.19;84.00;97927.16;29376;202;63010;-59
2022/12/18 01:46:31;;;;;;;0.90;0.90;;;;;;;-8.20;84.03;97926.31;29376;217;63009;-58
2022/12/18 01:47:06;;;;;;;0.90;0.90;;;;;;;-8.20;84.08;97925.50;29376;639;63015;-58
2022/12/18 01:47:46;;;;;;;2.42;1.90;;;;;;;-8.26;84.32;97920.81;29376;405;63009;-59
2022/12/18 01:48:18;;;;;;;0.80;0.80;;;;;;;-8.23;84.49;97917.88;29398;346;63005;-60
2022/12/18 01:48:53;;;;;;;0.90;0.90;;;;;;;-8.22;84.52;97925.63;29374;385;64013;-60
2022/12/18 01:49:25;;;;;;;1.12;1.12;;;;;;;-8.20;84.15;97926.31;29376;841;63005;-60
2022/12/18 01:49:59;;;;;;;2.55;2.45;;;;;;;-8.20;84.36;97925.50;29376;907;63009;-59
2022/12/18 01:50:36;;;;;;;0.80;0.80;;;;;;;-8.20;84.51;97920.22;29376;212;63004;-59
2022/12/18 01:51:10;;;;;;;1.00;1.00;;;;;;;-8.16;84.31;97927.66;29376;531;63009;-59
2022/12/18 01:51:41;;;;;;;0.80;0.80;;;;;;;-8.17;84.35;97920.75;29376;336;63004;-58
2022/12/18 01:52:13;;;;;;;2.22;2.12;;;;;;;-8.16;84.31;97927.66;29374;201;64013;-59
2022/12/18 01:52:53;;;;;;;0.80;0.80;;;;;;;-8.18;84.31;97918.25;29375;798;63004;-58
2022/12/18 01:53:24;;;;;;;2.40;2.30;;;;;;;-8.17;84.47;97918.13;29375;212;63009;-60
2022/12/18 01:53:57;;;;;;;1.37;1.37;;;;;;;-8.18;84.47;97927.00;29375;250;63005;-59
2022/12/18 01:54:29;;;;;;;0.90;0.90;;;;;;;-8.18;84.54;97919.09;29374;469;64013;-58
2022/12/18 01:55:03;;;;;;;0.85;0.85;;;;;;;-8.14;84.69;97925.72;29375;554;63005;-59
2022/12/18 01:55:46;;;;;;;0.80;0.80;;;;;;;-8.16;84.40;97927.66;29375;645;63018;-58
2022/12/18 01:56:20;;;;;;;0.80;0.80;;;;;;;-8.14;84.57;97920.44;29375;429;63017;-59
2022/12/18 01:56:52;;;;;;;3.17;3.03;;;;;;;-8.15;84.47;97924.06;29375;577;63009;-59
2022/12/18 01:57:27;;;;;;;1.15;1.15;;;;;;;-8.14;84.60;97925.72;29375;278;63004;-60
2022/12/18 01:58:00;;;;;;;0.80;0.80;;;;;;;-8.14;84.63;97930.16;29375;582;63004;-59
2022/12/18 01:59:11;;;;;;;0.80;0.80;;;;;;;-8.16;84.79;97930.31;29373;198;64009;-59
2022/12/18 01:59:45;;;;;;;0.90;0.90;;;;;;;-8.14;84.89;97930.97;29373;208;64013;-60
2022/12/18 02:00:20;;;;;;;1.60;1.60;;;;;;;-8.15;84.83;97928.50;29375;199;63004;-59
2022/12/18 02:00:51;;;;;;;1.05;1.05;;;;;;;-8.13;84.71;97926.53;29375;480;63009;-59
2022/12/18 02:01:25;;;;;;;0.90;0.90;;;;;;;-8.14;84.63;97925.72;29375;233;63012;-60
2022/12/18 02:01:57;;;;;;;2.65;2.55;;;;;;;-8.15;84.52;97925.88;29375;340;63009;-59
2022/12/18 02:02:30;;;;;;;1.55;1.55;;;;;;;-8.15;84.81;97925.88;29375;624;63008;-60
2022/12/18 02:03:02;;;;;;;0.90;0.90;;;;;;;-8.16;84.93;97917.12;29375;797;63009;-60
2022/12/18 02:03:36;;;;;;;0.80;0.80;;;;;;;-8.17;84.80;97920.75;29374;200;64009;-61
2022/12/18 02:04:39;;;;;;;0.80;0.80;;;;;;;-8.15;84.64;97918.78;29375;268;63009;-59
2022/12/18 02:05:14;;;;;;;0.90;0.90;;;;;;;-8.14;84.70;97915.19;29375;612;63004;-59
2022/12/18 02:06:29;;;;;;;0.82;0.82;;;;;;;-8.11;84.49;97912.25;29375;377;63009;-59
2022/12/18 02:07:11;;;;;;;0.82;0.82;;;;;;;-8.08;84.33;97907.66;29373;217;64009;-59
2022/12/18 02:08:30;;;;;;;0.80;0.80;;;;;;;-8.08;84.32;97905.03;29375;201;63008;-60
2022/12/18 02:09:39;;;;;;;0.90;0.90;;;;;;;-8.12;84.55;97913.22;29375;389;63005;-59
2022/12/18 02:11:02;;;;;;;0.80;0.80;;;;;;;-8.12;84.42;97913.22;29375;444;63005;-59
2022/12/18 02:12:09;;;;;;;0.90;0.90;;;;;;;-8.14;84.60;97914.34;29397;680;63005;-58
2022/12/18 02:12:56;;;;;;;0.80;0.80;;;;;;;-8.13;84.58;97914.22;29395;224;64013;-60
2022/12/18 02:14:16;;;;;;;0.80;0.80;;;;;;;-8.14;84.68;97919.63;29375;341;63004;-59
2022/12/18 02:15:20;;;;;;;0.90;0.90;;;;;;;-8.11;84.41;97920.16;29374;754;64008;-59
2022/12/18 02:16:13;;;;;;;0.90;0.90;;;;;;;-8.04;84.23;97911.66;29373;218;64009;-60
2022/12/18 02:17:01;;;;;;;0.88;0.88;;;;;;;-8.00;84.07;97910.38;29375;371;63009;-59
2022/12/18 02:17:52;;;;;;;5.25;2.65;;;;;;;-7.98;83.93;97911.06;29373;199;64009;-59
2022/12/18 02:18:41;;;;;;;0.90;0.90;;;;;;;-8.00;83.96;97915.66;29397;495;63009;-59
2022/12/18 02:20:02;;;;;;;0.90;0.90;;;;;;;-8.01;84.07;97916.62;29396;231;63004;-59
2022/12/18 02:20:45;;;;;;;2.78;2.67;;;;;;;-8.02;84.07;97918.44;29373;206;64013;-59
2022/12/18 02:21:57;;;;;;;1.10;1.10;;;;;;;-8.06;83.75;97921.50;29375;309;63004;-60
2022/12/18 02:23:07;;;;;;;0.80;0.80;;;;;;;-8.12;83.97;97928.19;29357;244;125008;-60
2022/12/18 02:23:56;;;;;;;0.80;0.80;;;;;;;-8.18;84.27;97919.09;29375;221;63009;-61
2022/12/18 02:25:13;;;;;;;0.80;0.80;;;;;;;-8.18;84.39;97924.38;29375;198;63005;-60
2022/12/18 02:26:11;;;;;;;0.80;0.80;;;;;;;-8.16;84.41;97917.12;29373;222;64013;-58
2022/12/18 02:26:58;;;;;;;0.90;0.90;;;;;;;-8.12;83.98;97925.56;29375;250;63009;-58
2022/12/18 02:27:32;;;;;;;0.90;0.90;;;;;;;-8.12;84.20;97923.75;29373;231;64009;-59
2022/12/18 02:28:09;;;;;;;0.90;0.90;;;;;;;-8.11;83.93;97917.53;29375;372;63009;-59
2022/12/18 02:28:51;;;;;;;1.65;1.65;;;;;;;-8.08;84.08;97923.47;29375;222;63004;-60
2022/12/18 02:29:27;;;;;;;;;;;;;;;-8.06;83.58;97917.06;29974;983;28004;-59
2022/12/18 02:30:01;;;;;;;0.80;0.80;;;;;;;-8.06;83.45;97916.25;29401;277;63005;-59
2022/12/18 02:30:35;;;;;;;0.80;0.80;;;;;;;-8.07;83.43;97914.59;29375;409;63001;-60
2022/12/18 02:31:11;;;;;;;0.90;0.90;;;;;;;-8.07;83.69;97909.31;29375;238;63005;-59
2022/12/18 02:31:49;;;;;;;0.85;0.85;;;;;;;-8.08;83.59;97918.19;29375;632;63000;-59
2022/12/18 02:32:27;;;;;;;1.00;1.00;;;;;;;-8.07;83.60;97919.84;29375;209;63019;-59
2022/12/18 02:33:01;;;;;;;0.80;0.80;;;;;;;-8.10;83.32;97920.97;29375;223;63000;-60
2022/12/18 02:33:35;;;;;;;0.90;0.90;;;;;;;-8.10;83.51;97926.25;29375;209;63016;-59
2022/12/18 02:34:09;;;;;;;0.80;0.80;;;;;;;-8.12;83.72;97915.03;29373;704;64009;-60
2022/12/18 02:34:43;;;;;;;0.80;0.80;;;;;;;-8.12;83.72;97929.03;29373;274;64013;-60
2022/12/18 02:35:25;;;;;;;0.85;0.85;;;;;;;-8.13;83.48;97930.00;29375;222;63004;-59
2022/12/18 02:35:59;;;;;;;0.90;0.90;;;;;;;-8.13;83.27;97932.62;29375;258;63009;-60
2022/12/18 02:36:33;;;;;;;2.03;1.98;;;;;;;-8.14;83.26;97935.44;29375;535;63004;-59
2022/12/18 02:37:11;;;;;;;1.12;1.12;;;;;;;-8.17;83.12;97931.28;29373;331;64013;-60
2022/12/18 02:37:46;;;;;;;0.90;0.90;;;;;;;-8.19;83.03;97933.22;29375;523;63005;-59
2022/12/18 02:38:19;;;;;;;0.90;0.90;;;;;;;-8.22;83.19;97937.97;29375;273;63009;-60
2022/12/18 02:38:52;;;;;;;0.90;0.90;;;;;;;-8.23;83.14;97941.59;29375;224;63005;-59
2022/12/18 02:39:26;;;;;;;0.90;0.90;;;;;;;-8.25;83.35;97933.81;29375;282;63018;-59
2022/12/18 02:39:59;;;;;;;0.80;0.80;;;;;;;-8.25;83.49;97944.34;29375;623;63005;-58
2022/12/18 02:40:32;;;;;;;0.80;0.80;;;;;;;-8.27;83.47;97940.22;29373;803;64013;-59
2022/12/18 02:41:05;;;;;;;0.80;0.80;;;;;;;-8.30;83.50;97943.97;29375;209;63017;-59
2022/12/18 02:41:38;;;;;;;0.80;0.80;;;;;;;-8.29;83.68;97943.00;29375;308;63009;-59
2022/12/18 02:42:11;;;;;;;0.80;0.80;;;;;;;-8.27;83.42;97941.03;29375;695;63004;-59
2022/12/18 02:42:43;;;;;;;0.80;0.80;;;;;;;-8.28;83.22;97939.38;29375;326;63009;-59
2022/12/18 02:43:16;;;;;;;0.80;0.80;;;;;;;-8.28;83.38;97939.38;29373;236;64009;-59
2022/12/18 02:43:56;;;;;;;0.90;0.90;;;;;;;-8.29;83.43;97943.00;29375;227;63009;-59
2022/12/18 02:44:28;;;;;;;0.85;0.85;;;;;;;-8.29;83.48;97937.72;29397;226;63008;-58
2022/12/18 02:44:59;;;;;;;0.80;0.80;;;;;;;-8.25;83.65;97939.09;29397;503;63009;-58
2022/12/18 02:45:31;;;;;;;1.95;1.87;;;;;;;-8.24;83.32;97940.75;29375;509;63005;-59
2022/12/18 02:46:27;;;;;;;0.80;0.80;;;;;;;-8.26;83.15;97926.06;29373;695;63009;-60
2022/12/18 02:46:58;;;;;;;0.80;0.80;;;;;;;-8.32;83.04;97935.44;29374;200;63009;-58
2022/12/18 02:47:33;;;;;;;0.80;0.80;;;;;;;-8.35;83.38;97938.38;29373;199;63009;-62
2022/12/18 02:48:05;;;;;;;1.70;1.70;;;;;;;-8.33;83.46;97939.06;29372;263;64009;-61
2022/12/18 02:48:37;;;;;;;0.88;0.88;;;;;;;-8.35;83.15;97938.38;29373;655;63009;-61
2022/12/18 02:49:47;;;;;;;0.80;0.80;;;;;;;-8.42;83.13;97937.31;29373;555;63004;-61
2022/12/18 02:50:30;;;;;;;0.75;0.75;;;;;;;-8.50;83.46;97945.94;29371;450;64013;-60
2022/12/18 02:51:21;;;;;;;0.90;0.90;;;;;;;-8.55;83.87;97947.38;29373;216;63004;-59
2022/12/18 02:52:49;;;;;;;0.90;0.90;;;;;;;-8.60;84.31;97945.16;29355;438;125008;-60
2022/12/18 02:53:40;;;;;;;0.82;0.82;;;;;;;-8.57;84.32;97944.03;29373;242;63005;-59